sensor_id;sensor_type;location;lat;lon;timestamp;P1;durP1;ratioP1;P2;durP2;ratioP2
1879;SDS011;49285;49.002;8.390;2023-06-04T00:02:03;8.40;;;7.30;;
1879;SDS011;49285;49.002;8.390;2023-06-04T00:04:29;10.80;;;7.20;;
1879;SDS011;49285;49.002;8.390;2023-06-04T00:06:55;9.23;;;7.00;;
1879;SDS011;49285;49.002;8.390;2023-06-04T00:09:20;6.87;;;6.20;;
1879;SDS011;49285;49.002;8.390;2023-06-04T00:11:46;7.43;;;6.73;;
1879;SDS011;49285;49.002;8.390;2023-06-04T00:14:12;7.30;;;6.30;;
1879;SDS011;49285;49.002;8.390;2023-06-04T00:16:39;9.23;;;7.40;;
1879;SDS011;49285;49.002;8.390;2023-06-04T00:19:05;9.40;;;6.50;;
1879;SDS011;49285;49.002;8.390;2023-06-04T00:21:31;7.90;;;6.07;;
1879;SDS011;49285;49.002;8.390;2023-06-04T00:23:57;5.70;;;5.10;;
1879;SDS011;49285;49.002;8.390;2023-06-04T00:26:24;10.70;;;6.50;;
1879;SDS011;49285;49.002;8.390;2023-06-04T00:28:49;6.67;;;5.97;;
1879;SDS011;49285;49.002;8.390;2023-06-04T00:31:15;10.23;;;6.40;;
1879;SDS011;49285;49.002;8.390;2023-06-04T00:33:40;9.40;;;5.90;;
1879;SDS011;49285;49.002;8.390;2023-06-04T00:36:06;6.67;;;5.70;;
1879;SDS011;49285;49.002;8.390;2023-06-04T00:38:32;9.60;;;6.40;;
1879;SDS011;49285;49.002;8.390;2023-06-04T00:40:58;6.40;;;5.77;;
1879;SDS011;49285;49.002;8.390;2023-06-04T00:43:23;6.33;;;5.73;;
1879;SDS011;49285;49.002;8.390;2023-06-04T00:45:52;6.60;;;5.80;;
1879;SDS011;49285;49.002;8.390;2023-06-04T00:48:18;6.43;;;5.83;;
1879;SDS011;49285;49.002;8.390;2023-06-04T00:50:45;6.00;;;5.40;;
1879;SDS011;49285;49.002;8.390;2023-06-04T00:53:12;6.37;;;5.77;;
1879;SDS011;49285;49.002;8.390;2023-06-04T00:55:37;11.50;;;6.93;;
1879;SDS011;49285;49.002;8.390;2023-06-04T00:58:03;6.23;;;5.67;;
1879;SDS011;49285;49.002;8.390;2023-06-04T01:00:31;5.50;;;5.00;;
1879;SDS011;49285;49.002;8.390;2023-06-04T01:02:57;8.30;;;5.20;;
1879;SDS011;49285;49.002;8.390;2023-06-04T01:08:05;6.20;;;5.37;;
1879;SDS011;49285;49.002;8.390;2023-06-04T01:10:33;5.93;;;5.40;;
1879;SDS011;49285;49.002;8.390;2023-06-04T01:13:00;8.60;;;5.43;;
1879;SDS011;49285;49.002;8.390;2023-06-04T01:15:25;7.03;;;6.03;;
1879;SDS011;49285;49.002;8.390;2023-06-04T01:17:53;6.60;;;5.30;;
1879;SDS011;49285;49.002;8.390;2023-06-04T01:25:59;5.90;;;4.80;;
1879;SDS011;49285;49.002;8.390;2023-06-04T01:28:27;6.90;;;5.37;;
1879;SDS011;49285;49.002;8.390;2023-06-04T01:30:55;6.70;;;5.30;;
1879;SDS011;49285;49.002;8.390;2023-06-04T01:33:21;5.60;;;4.80;;
1879;SDS011;49285;49.002;8.390;2023-06-04T01:35:48;5.37;;;4.87;;
1879;SDS011;49285;49.002;8.390;2023-06-04T01:38:14;5.00;;;4.60;;
1879;SDS011;49285;49.002;8.390;2023-06-04T01:40:40;6.17;;;5.57;;
1879;SDS011;49285;49.002;8.390;2023-06-04T01:43:06;5.10;;;4.60;;
1879;SDS011;49285;49.002;8.390;2023-06-04T01:45:32;5.47;;;4.50;;
1879;SDS011;49285;49.002;8.390;2023-06-04T01:48:00;11.30;;;4.87;;
1879;SDS011;49285;49.002;8.390;2023-06-04T01:50:26;6.50;;;5.03;;
1879;SDS011;49285;49.002;8.390;2023-06-04T01:52:52;7.50;;;5.40;;
1879;SDS011;49285;49.002;8.390;2023-06-04T01:55:18;10.97;;;4.67;;
1879;SDS011;49285;49.002;8.390;2023-06-04T01:57:44;6.97;;;4.70;;
1879;SDS011;49285;49.002;8.390;2023-06-04T02:00:11;6.90;;;5.30;;
1879;SDS011;49285;49.002;8.390;2023-06-04T02:02:37;5.50;;;5.00;;
1879;SDS011;49285;49.002;8.390;2023-06-04T02:05:04;5.30;;;4.27;;
1879;SDS011;49285;49.002;8.390;2023-06-04T02:07:33;7.30;;;4.80;;
1879;SDS011;49285;49.002;8.390;2023-06-04T02:09:59;7.10;;;4.53;;
1879;SDS011;49285;49.002;8.390;2023-06-04T02:12:25;5.33;;;4.47;;
1879;SDS011;49285;49.002;8.390;2023-06-04T02:14:50;5.63;;;5.00;;
1879;SDS011;49285;49.002;8.390;2023-06-04T02:17:16;6.23;;;4.30;;
1879;SDS011;49285;49.002;8.390;2023-06-04T02:19:42;4.90;;;4.20;;
1879;SDS011;49285;49.002;8.390;2023-06-04T02:22:15;4.70;;;4.13;;
1879;SDS011;49285;49.002;8.390;2023-06-04T02:24:44;4.70;;;4.30;;
1879;SDS011;49285;49.002;8.390;2023-06-04T02:27:13;4.50;;;4.10;;
1879;SDS011;49285;49.002;8.390;2023-06-04T02:29:39;6.57;;;4.40;;
1879;SDS011;49285;49.002;8.390;2023-06-04T02:32:06;5.30;;;3.60;;
1879;SDS011;49285;49.002;8.390;2023-06-04T02:34:32;5.97;;;4.20;;
1879;SDS011;49285;49.002;8.390;2023-06-04T02:36:59;6.37;;;4.07;;
1879;SDS011;49285;49.002;8.390;2023-06-04T02:39:25;4.93;;;4.13;;
1879;SDS011;49285;49.002;8.390;2023-06-04T02:41:50;6.67;;;4.30;;
1879;SDS011;49285;49.002;8.390;2023-06-04T02:44:16;5.40;;;4.33;;
1879;SDS011;49285;49.002;8.390;2023-06-04T02:46:41;4.00;;;3.53;;
1879;SDS011;49285;49.002;8.390;2023-06-04T02:49:08;4.03;;;3.63;;
1879;SDS011;49285;49.002;8.390;2023-06-04T02:51:38;5.50;;;4.20;;
1879;SDS011;49285;49.002;8.390;2023-06-04T02:54:04;4.53;;;3.77;;
1879;SDS011;49285;49.002;8.390;2023-06-04T02:56:30;5.37;;;3.80;;
1879;SDS011;49285;49.002;8.390;2023-06-04T02:58:56;7.07;;;4.10;;
1879;SDS011;49285;49.002;8.390;2023-06-04T03:01:22;5.07;;;3.57;;
1879;SDS011;49285;49.002;8.390;2023-06-04T03:03:48;5.53;;;3.47;;
1879;SDS011;49285;49.002;8.390;2023-06-04T03:06:14;7.93;;;3.93;;
1879;SDS011;49285;49.002;8.390;2023-06-04T03:08:41;4.63;;;3.67;;
1879;SDS011;49285;49.002;8.390;2023-06-04T03:11:08;5.33;;;4.83;;
1879;SDS011;49285;49.002;8.390;2023-06-04T03:13:33;7.60;;;3.40;;
1879;SDS011;49285;49.002;8.390;2023-06-04T03:15:59;5.53;;;4.27;;
1879;SDS011;49285;49.002;8.390;2023-06-04T03:18:28;4.17;;;3.77;;
1879;SDS011;49285;49.002;8.390;2023-06-04T03:20:54;4.00;;;3.70;;
1879;SDS011;49285;49.002;8.390;2023-06-04T03:23:20;7.83;;;3.60;;
1879;SDS011;49285;49.002;8.390;2023-06-04T03:25:46;5.57;;;3.20;;
1879;SDS011;49285;49.002;8.390;2023-06-04T03:28:12;3.97;;;3.57;;
1879;SDS011;49285;49.002;8.390;2023-06-04T03:30:39;4.30;;;3.53;;
1879;SDS011;49285;49.002;8.390;2023-06-04T03:33:05;4.10;;;3.70;;
1879;SDS011;49285;49.002;8.390;2023-06-04T03:35:30;4.83;;;3.40;;
1879;SDS011;49285;49.002;8.390;2023-06-04T03:37:56;4.40;;;3.40;;
1879;SDS011;49285;49.002;8.390;2023-06-04T03:40:21;6.13;;;4.17;;
1879;SDS011;49285;49.002;8.390;2023-06-04T03:42:47;8.93;;;3.60;;
1879;SDS011;49285;49.002;8.390;2023-06-04T03:45:12;3.83;;;3.37;;
1879;SDS011;49285;49.002;8.390;2023-06-04T03:47:38;4.10;;;3.27;;
1879;SDS011;49285;49.002;8.390;2023-06-04T03:50:04;7.87;;;4.03;;
1879;SDS011;49285;49.002;8.390;2023-06-04T03:52:30;3.90;;;3.40;;
1879;SDS011;49285;49.002;8.390;2023-06-04T03:54:56;4.20;;;3.37;;
1879;SDS011;49285;49.002;8.390;2023-06-04T03:57:22;4.77;;;3.50;;
1879;SDS011;49285;49.002;8.390;2023-06-04T03:59:47;4.00;;;3.50;;
1879;SDS011;49285;49.002;8.390;2023-06-04T04:02:13;5.43;;;3.27;;
1879;SDS011;49285;49.002;8.390;2023-06-04T04:04:39;3.50;;;3.20;;
1879;SDS011;49285;49.002;8.390;2023-06-04T04:07:05;3.47;;;3.00;;
1879;SDS011;49285;49.002;8.390;2023-06-04T04:09:30;3.60;;;3.30;;
1879;SDS011;49285;49.002;8.390;2023-06-04T04:11:56;3.40;;;2.93;;
1879;SDS011;49285;49.002;8.390;2023-06-04T04:14:22;4.67;;;3.20;;
1879;SDS011;49285;49.002;8.390;2023-06-04T04:16:47;3.40;;;3.10;;
1879;SDS011;49285;49.002;8.390;2023-06-04T04:19:13;3.83;;;3.30;;
1879;SDS011;49285;49.002;8.390;2023-06-04T04:21:39;5.40;;;3.43;;
1879;SDS011;49285;49.002;8.390;2023-06-04T04:24:04;8.13;;;3.37;;
1879;SDS011;49285;49.002;8.390;2023-06-04T04:26:30;5.87;;;3.30;;
1879;SDS011;49285;49.002;8.390;2023-06-04T04:28:56;4.90;;;3.33;;
1879;SDS011;49285;49.002;8.390;2023-06-04T04:31:26;4.40;;;3.87;;
1879;SDS011;49285;49.002;8.390;2023-06-04T04:33:54;3.93;;;3.20;;
1879;SDS011;49285;49.002;8.390;2023-06-04T04:36:20;3.50;;;3.13;;
1879;SDS011;49285;49.002;8.390;2023-06-04T04:38:45;3.97;;;3.27;;
1879;SDS011;49285;49.002;8.390;2023-06-04T04:41:11;4.40;;;3.13;;
1879;SDS011;49285;49.002;8.390;2023-06-04T04:43:37;4.97;;;3.50;;
1879;SDS011;49285;49.002;8.390;2023-06-04T04:46:06;2.77;;;2.53;;
1879;SDS011;49285;49.002;8.390;2023-06-04T04:48:32;6.53;;;3.37;;
1879;SDS011;49285;49.002;8.390;2023-06-04T04:50:58;4.63;;;3.30;;
1879;SDS011;49285;49.002;8.390;2023-06-04T04:53:23;3.47;;;3.10;;
1879;SDS011;49285;49.002;8.390;2023-06-04T04:55:50;3.73;;;3.30;;
1879;SDS011;49285;49.002;8.390;2023-06-04T04:58:16;3.20;;;2.87;;
1879;SDS011;49285;49.002;8.390;2023-06-04T05:00:42;4.33;;;3.20;;
1879;SDS011;49285;49.002;8.390;2023-06-04T05:03:08;8.00;;;3.40;;
1879;SDS011;49285;49.002;8.390;2023-06-04T05:05:33;7.43;;;3.50;;
1879;SDS011;49285;49.002;8.390;2023-06-04T05:07:59;6.10;;;3.50;;
1879;SDS011;49285;49.002;8.390;2023-06-04T05:10:24;6.10;;;3.70;;
1879;SDS011;49285;49.002;8.390;2023-06-04T05:12:59;3.60;;;3.13;;
1879;SDS011;49285;49.002;8.390;2023-06-04T05:15:29;3.37;;;3.07;;
1879;SDS011;49285;49.002;8.390;2023-06-04T05:17:55;7.70;;;3.17;;
1879;SDS011;49285;49.002;8.390;2023-06-04T05:20:21;7.53;;;4.27;;
1879;SDS011;49285;49.002;8.390;2023-06-04T05:22:47;7.40;;;3.60;;
1879;SDS011;49285;49.002;8.390;2023-06-04T05:25:13;4.10;;;3.10;;
1879;SDS011;49285;49.002;8.390;2023-06-04T05:27:39;4.80;;;3.40;;
1879;SDS011;49285;49.002;8.390;2023-06-04T05:30:06;4.53;;;3.17;;
1879;SDS011;49285;49.002;8.390;2023-06-04T05:32:32;4.93;;;3.10;;
1879;SDS011;49285;49.002;8.390;2023-06-04T05:34:58;5.60;;;3.20;;
1879;SDS011;49285;49.002;8.390;2023-06-04T05:37:24;3.83;;;3.23;;
1879;SDS011;49285;49.002;8.390;2023-06-04T05:39:56;4.17;;;3.20;;
1879;SDS011;49285;49.002;8.390;2023-06-04T05:42:22;4.07;;;3.67;;
1879;SDS011;49285;49.002;8.390;2023-06-04T05:44:48;9.47;;;3.60;;
1879;SDS011;49285;49.002;8.390;2023-06-04T05:47:15;4.03;;;3.23;;
1879;SDS011;49285;49.002;8.390;2023-06-04T05:49:41;5.20;;;3.10;;
1879;SDS011;49285;49.002;8.390;2023-06-04T05:52:07;4.50;;;3.53;;
1879;SDS011;49285;49.002;8.390;2023-06-04T05:54:33;4.20;;;3.33;;
1879;SDS011;49285;49.002;8.390;2023-06-04T05:56:58;7.20;;;3.63;;
1879;SDS011;49285;49.002;8.390;2023-06-04T05:59:24;6.50;;;3.20;;
1879;SDS011;49285;49.002;8.390;2023-06-04T06:01:50;4.03;;;3.43;;
1879;SDS011;49285;49.002;8.390;2023-06-04T06:04:15;5.60;;;4.20;;
1879;SDS011;49285;49.002;8.390;2023-06-04T06:06:41;4.40;;;3.37;;
1879;SDS011;49285;49.002;8.390;2023-06-04T06:09:08;4.10;;;3.17;;
1879;SDS011;49285;49.002;8.390;2023-06-04T06:11:35;5.53;;;3.37;;
1879;SDS011;49285;49.002;8.390;2023-06-04T06:14:00;4.03;;;2.90;;
1879;SDS011;49285;49.002;8.390;2023-06-04T06:16:26;2.97;;;2.73;;
1879;SDS011;49285;49.002;8.390;2023-06-04T06:18:52;6.03;;;3.50;;
1879;SDS011;49285;49.002;8.390;2023-06-04T06:21:18;4.40;;;4.00;;
1879;SDS011;49285;49.002;8.390;2023-06-04T06:23:45;4.03;;;3.37;;
1879;SDS011;49285;49.002;8.390;2023-06-04T06:26:11;6.50;;;3.30;;
1879;SDS011;49285;49.002;8.390;2023-06-04T06:28:37;3.43;;;3.13;;
1879;SDS011;49285;49.002;8.390;2023-06-04T06:31:02;5.10;;;3.47;;
1879;SDS011;49285;49.002;8.390;2023-06-04T06:33:28;9.03;;;3.20;;
1879;SDS011;49285;49.002;8.390;2023-06-04T06:35:53;3.97;;;3.33;;
1879;SDS011;49285;49.002;8.390;2023-06-04T06:38:19;5.73;;;3.77;;
1879;SDS011;49285;49.002;8.390;2023-06-04T06:40:45;3.70;;;3.30;;
1879;SDS011;49285;49.002;8.390;2023-06-04T06:43:10;5.23;;;3.47;;
1879;SDS011;49285;49.002;8.390;2023-06-04T06:45:36;4.90;;;3.40;;
1879;SDS011;49285;49.002;8.390;2023-06-04T06:48:02;4.60;;;3.60;;
1879;SDS011;49285;49.002;8.390;2023-06-04T06:50:28;3.37;;;3.07;;
1879;SDS011;49285;49.002;8.390;2023-06-04T06:52:54;3.80;;;3.30;;
1879;SDS011;49285;49.002;8.390;2023-06-04T06:55:20;4.10;;;3.13;;
1879;SDS011;49285;49.002;8.390;2023-06-04T06:57:45;3.50;;;2.97;;
1879;SDS011;49285;49.002;8.390;2023-06-04T07:00:11;3.50;;;3.20;;
1879;SDS011;49285;49.002;8.390;2023-06-04T07:02:37;3.70;;;3.40;;
1879;SDS011;49285;49.002;8.390;2023-06-04T07:05:03;10.00;;;3.33;;
1879;SDS011;49285;49.002;8.390;2023-06-04T07:07:29;5.03;;;3.30;;
1879;SDS011;49285;49.002;8.390;2023-06-04T07:09:54;4.87;;;3.47;;
1879;SDS011;49285;49.002;8.390;2023-06-04T07:12:20;3.50;;;3.20;;
1879;SDS011;49285;49.002;8.390;2023-06-04T07:14:46;6.40;;;3.40;;
1879;SDS011;49285;49.002;8.390;2023-06-04T07:17:11;3.70;;;3.40;;
1879;SDS011;49285;49.002;8.390;2023-06-04T07:19:37;4.10;;;3.10;;
1879;SDS011;49285;49.002;8.390;2023-06-04T07:22:03;3.50;;;3.20;;
1879;SDS011;49285;49.002;8.390;2023-06-04T07:24:28;3.80;;;3.50;;
1879;SDS011;49285;49.002;8.390;2023-06-04T07:26:54;6.50;;;5.90;;
1879;SDS011;49285;49.002;8.390;2023-06-04T07:29:19;5.87;;;4.60;;
1879;SDS011;49285;49.002;8.390;2023-06-04T07:31:45;4.27;;;3.50;;
1879;SDS011;49285;49.002;8.390;2023-06-04T07:34:11;3.87;;;2.83;;
1879;SDS011;49285;49.002;8.390;2023-06-04T07:36:36;4.77;;;3.37;;
1879;SDS011;49285;49.002;8.390;2023-06-04T07:39:02;4.83;;;4.33;;
1879;SDS011;49285;49.002;8.390;2023-06-04T07:41:29;9.43;;;4.80;;
1879;SDS011;49285;49.002;8.390;2023-06-04T07:43:55;8.70;;;6.77;;
1879;SDS011;49285;49.002;8.390;2023-06-04T07:46:21;4.33;;;3.93;;
1879;SDS011;49285;49.002;8.390;2023-06-04T07:48:46;6.60;;;4.70;;
1879;SDS011;49285;49.002;8.390;2023-06-04T07:51:12;6.70;;;3.60;;
1879;SDS011;49285;49.002;8.390;2023-06-04T07:53:38;6.30;;;5.70;;
1879;SDS011;49285;49.002;8.390;2023-06-04T07:56:05;7.70;;;6.00;;
1879;SDS011;49285;49.002;8.390;2023-06-04T07:58:31;7.33;;;3.47;;
1879;SDS011;49285;49.002;8.390;2023-06-04T08:00:56;6.33;;;5.07;;
1879;SDS011;49285;49.002;8.390;2023-06-04T08:03:22;5.70;;;4.83;;
1879;SDS011;49285;49.002;8.390;2023-06-04T08:05:48;6.30;;;5.70;;
1879;SDS011;49285;49.002;8.390;2023-06-04T08:08:14;7.47;;;5.30;;
1879;SDS011;49285;49.002;8.390;2023-06-04T08:10:40;6.90;;;6.20;;
1879;SDS011;49285;49.002;8.390;2023-06-04T08:13:05;3.87;;;3.57;;
1879;SDS011;49285;49.002;8.390;2023-06-04T08:15:31;7.40;;;4.07;;
1879;SDS011;49285;49.002;8.390;2023-06-04T08:17:56;5.93;;;4.10;;
1879;SDS011;49285;49.002;8.390;2023-06-04T08:20:22;8.03;;;7.33;;
1879;SDS011;49285;49.002;8.390;2023-06-04T08:22:49;7.90;;;5.87;;
1879;SDS011;49285;49.002;8.390;2023-06-04T08:25:14;7.10;;;5.43;;
1879;SDS011;49285;49.002;8.390;2023-06-04T08:27:41;5.77;;;5.17;;
1879;SDS011;49285;49.002;8.390;2023-06-04T08:30:07;5.73;;;5.13;;
1879;SDS011;49285;49.002;8.390;2023-06-04T08:32:33;4.87;;;4.37;;
1879;SDS011;49285;49.002;8.390;2023-06-04T08:34:59;8.23;;;6.67;;
1879;SDS011;49285;49.002;8.390;2023-06-04T08:37:25;5.97;;;4.83;;
1879;SDS011;49285;49.002;8.390;2023-06-04T08:39:51;5.50;;;4.50;;
1879;SDS011;49285;49.002;8.390;2023-06-04T08:42:22;4.33;;;3.93;;
1879;SDS011;49285;49.002;8.390;2023-06-04T08:44:54;4.83;;;4.33;;
1879;SDS011;49285;49.002;8.390;2023-06-04T08:47:21;9.60;;;5.50;;
1879;SDS011;49285;49.002;8.390;2023-06-04T08:49:49;6.73;;;6.13;;
1879;SDS011;49285;49.002;8.390;2023-06-04T08:52:18;5.50;;;4.67;;
1879;SDS011;49285;49.002;8.390;2023-06-04T08:54:49;6.10;;;5.20;;
1879;SDS011;49285;49.002;8.390;2023-06-04T08:57:19;6.37;;;4.57;;
1879;SDS011;49285;49.002;8.390;2023-06-04T08:59:47;5.50;;;4.23;;
1879;SDS011;49285;49.002;8.390;2023-06-04T09:02:14;4.40;;;3.70;;
1879;SDS011;49285;49.002;8.390;2023-06-04T09:04:40;5.30;;;4.40;;
1879;SDS011;49285;49.002;8.390;2023-06-04T09:07:07;6.30;;;4.80;;
1879;SDS011;49285;49.002;8.390;2023-06-04T09:09:37;7.07;;;6.37;;
1879;SDS011;49285;49.002;8.390;2023-06-04T09:12:04;6.67;;;4.60;;
1879;SDS011;49285;49.002;8.390;2023-06-04T09:14:35;5.37;;;4.70;;
1879;SDS011;49285;49.002;8.390;2023-06-04T09:17:01;6.23;;;5.63;;
1879;SDS011;49285;49.002;8.390;2023-06-04T09:19:26;5.47;;;4.97;;
1879;SDS011;49285;49.002;8.390;2023-06-04T09:21:53;8.10;;;4.63;;
1879;SDS011;49285;49.002;8.390;2023-06-04T09:24:21;8.10;;;4.57;;
1879;SDS011;49285;49.002;8.390;2023-06-04T09:26:48;4.87;;;4.37;;
1879;SDS011;49285;49.002;8.390;2023-06-04T09:29:14;4.17;;;3.77;;
1879;SDS011;49285;49.002;8.390;2023-06-04T09:31:40;4.20;;;3.80;;
1879;SDS011;49285;49.002;8.390;2023-06-04T09:34:06;4.97;;;3.80;;
1879;SDS011;49285;49.002;8.390;2023-06-04T09:36:32;4.60;;;4.20;;
1879;SDS011;49285;49.002;8.390;2023-06-04T09:39:00;7.03;;;4.10;;
1879;SDS011;49285;49.002;8.390;2023-06-04T09:41:27;9.90;;;4.70;;
1879;SDS011;49285;49.002;8.390;2023-06-04T09:44:00;9.20;;;6.03;;
1879;SDS011;49285;49.002;8.390;2023-06-04T09:46:28;5.90;;;5.30;;
1879;SDS011;49285;49.002;8.390;2023-06-04T09:49:00;6.50;;;5.00;;
1879;SDS011;49285;49.002;8.390;2023-06-04T09:51:28;6.33;;;4.00;;
1879;SDS011;49285;49.002;8.390;2023-06-04T09:53:57;4.73;;;4.20;;
1879;SDS011;49285;49.002;8.390;2023-06-04T09:56:24;4.30;;;3.43;;
1879;SDS011;49285;49.002;8.390;2023-06-04T09:58:58;8.37;;;4.07;;
1879;SDS011;49285;49.002;8.390;2023-06-04T10:01:28;10.37;;;3.80;;
1879;SDS011;49285;49.002;8.390;2023-06-04T10:03:55;4.47;;;4.07;;
1879;SDS011;49285;49.002;8.390;2023-06-04T10:06:27;5.67;;;3.83;;
1879;SDS011;49285;49.002;8.390;2023-06-04T10:08:57;5.43;;;4.10;;
1879;SDS011;49285;49.002;8.390;2023-06-04T10:11:31;4.30;;;3.90;;
1879;SDS011;49285;49.002;8.390;2023-06-04T10:14:09;4.97;;;4.47;;
1879;SDS011;49285;49.002;8.390;2023-06-04T10:16:43;5.30;;;4.27;;
1879;SDS011;49285;49.002;8.390;2023-06-04T10:19:10;4.90;;;4.33;;
1879;SDS011;49285;49.002;8.390;2023-06-04T10:21:36;5.90;;;4.30;;
1879;SDS011;49285;49.002;8.390;2023-06-04T10:24:02;5.77;;;4.30;;
1879;SDS011;49285;49.002;8.390;2023-06-04T10:26:28;4.70;;;4.30;;
1879;SDS011;49285;49.002;8.390;2023-06-04T10:28:56;4.50;;;4.10;;
1879;SDS011;49285;49.002;8.390;2023-06-04T10:31:23;4.33;;;3.93;;
1879;SDS011;49285;49.002;8.390;2023-06-04T10:33:53;4.43;;;3.73;;
1879;SDS011;49285;49.002;8.390;2023-06-04T10:36:20;6.60;;;3.60;;
1879;SDS011;49285;49.002;8.390;2023-06-04T10:38:47;5.50;;;4.13;;
1879;SDS011;49285;49.002;8.390;2023-06-04T10:41:17;4.57;;;4.17;;
1879;SDS011;49285;49.002;8.390;2023-06-04T10:43:46;5.40;;;4.70;;
1879;SDS011;49285;49.002;8.390;2023-06-04T10:46:19;4.40;;;3.80;;
1879;SDS011;49285;49.002;8.390;2023-06-04T10:48:46;8.90;;;3.90;;
1879;SDS011;49285;49.002;8.390;2023-06-04T10:51:13;4.17;;;3.80;;
1879;SDS011;49285;49.002;8.390;2023-06-04T10:53:39;5.23;;;3.97;;
1879;SDS011;49285;49.002;8.390;2023-06-04T10:56:05;6.60;;;4.13;;
1879;SDS011;49285;49.002;8.390;2023-06-04T10:58:34;4.10;;;3.77;;
1879;SDS011;49285;49.002;8.390;2023-06-04T11:01:00;4.53;;;4.13;;
1879;SDS011;49285;49.002;8.390;2023-06-04T11:03:47;7.43;;;4.27;;
1879;SDS011;49285;49.002;8.390;2023-06-04T11:06:15;5.40;;;4.33;;
1879;SDS011;49285;49.002;8.390;2023-06-04T11:08:42;4.43;;;4.03;;
1879;SDS011;49285;49.002;8.390;2023-06-04T11:11:11;4.83;;;3.87;;
1879;SDS011;49285;49.002;8.390;2023-06-04T11:13:41;4.97;;;4.33;;
1879;SDS011;49285;49.002;8.390;2023-06-04T11:16:14;4.90;;;3.87;;
1879;SDS011;49285;49.002;8.390;2023-06-04T11:18:43;6.23;;;4.30;;
1879;SDS011;49285;49.002;8.390;2023-06-04T11:21:19;5.77;;;4.00;;
1879;SDS011;49285;49.002;8.390;2023-06-04T11:23:45;4.43;;;3.60;;
1879;SDS011;49285;49.002;8.390;2023-06-04T11:26:11;3.73;;;3.40;;
1879;SDS011;49285;49.002;8.390;2023-06-04T11:28:36;4.10;;;3.67;;
1879;SDS011;49285;49.002;8.390;2023-06-04T11:31:03;4.27;;;3.87;;
1879;SDS011;49285;49.002;8.390;2023-06-04T11:33:30;8.17;;;4.67;;
1879;SDS011;49285;49.002;8.390;2023-06-04T11:36:07;4.90;;;4.50;;
1879;SDS011;49285;49.002;8.390;2023-06-04T11:38:33;4.90;;;4.40;;
1879;SDS011;49285;49.002;8.390;2023-06-04T11:40:58;7.60;;;4.07;;
1879;SDS011;49285;49.002;8.390;2023-06-04T11:43:25;6.00;;;4.50;;
1879;SDS011;49285;49.002;8.390;2023-06-04T11:45:52;4.87;;;4.43;;
1879;SDS011;49285;49.002;8.390;2023-06-04T11:48:18;6.57;;;5.70;;
1879;SDS011;49285;49.002;8.390;2023-06-04T11:50:45;6.73;;;6.03;;
1879;SDS011;49285;49.002;8.390;2023-06-04T11:53:11;10.00;;;8.13;;
1879;SDS011;49285;49.002;8.390;2023-06-04T11:55:37;6.07;;;4.90;;
1879;SDS011;49285;49.002;8.390;2023-06-04T11:58:04;5.10;;;4.60;;
1879;SDS011;49285;49.002;8.390;2023-06-04T12:00:29;5.27;;;4.77;;
1879;SDS011;49285;49.002;8.390;2023-06-04T12:02:56;8.03;;;5.20;;
1879;SDS011;49285;49.002;8.390;2023-06-04T12:05:22;6.40;;;5.60;;
1879;SDS011;49285;49.002;8.390;2023-06-04T12:08:03;4.47;;;3.60;;
1879;SDS011;49285;49.002;8.390;2023-06-04T12:10:37;5.57;;;5.07;;
1879;SDS011;49285;49.002;8.390;2023-06-04T12:13:04;7.80;;;5.47;;
1879;SDS011;49285;49.002;8.390;2023-06-04T12:15:30;9.00;;;5.80;;
1879;SDS011;49285;49.002;8.390;2023-06-04T12:17:55;5.77;;;5.10;;
1879;SDS011;49285;49.002;8.390;2023-06-04T12:20:34;5.27;;;4.73;;
1879;SDS011;49285;49.002;8.390;2023-06-04T12:23:02;4.43;;;4.03;;
1879;SDS011;49285;49.002;8.390;2023-06-04T12:25:28;4.93;;;4.40;;
1879;SDS011;49285;49.002;8.390;2023-06-04T12:27:55;5.10;;;4.60;;
1879;SDS011;49285;49.002;8.390;2023-06-04T12:30:21;5.23;;;4.70;;
1879;SDS011;49285;49.002;8.390;2023-06-04T12:32:47;5.10;;;4.60;;
1879;SDS011;49285;49.002;8.390;2023-06-04T12:35:13;5.57;;;5.07;;
1879;SDS011;49285;49.002;8.390;2023-06-04T12:37:40;4.87;;;4.30;;
1879;SDS011;49285;49.002;8.390;2023-06-04T12:40:06;7.83;;;4.70;;
1879;SDS011;49285;49.002;8.390;2023-06-04T12:42:33;5.50;;;4.60;;
1879;SDS011;49285;49.002;8.390;2023-06-04T12:44:59;4.70;;;4.30;;
1879;SDS011;49285;49.002;8.390;2023-06-04T12:47:25;4.70;;;4.20;;
1879;SDS011;49285;49.002;8.390;2023-06-04T12:49:50;5.33;;;4.20;;
1879;SDS011;49285;49.002;8.390;2023-06-04T12:52:17;4.87;;;4.30;;
1879;SDS011;49285;49.002;8.390;2023-06-04T12:54:43;5.60;;;5.10;;
1879;SDS011;49285;49.002;8.390;2023-06-04T12:57:08;4.83;;;4.23;;
1879;SDS011;49285;49.002;8.390;2023-06-04T12:59:34;4.83;;;4.20;;
1879;SDS011;49285;49.002;8.390;2023-06-04T13:02:00;8.27;;;4.63;;
1879;SDS011;49285;49.002;8.390;2023-06-04T13:04:25;4.77;;;4.37;;
1879;SDS011;49285;49.002;8.390;2023-06-04T13:06:51;4.87;;;4.37;;
1879;SDS011;49285;49.002;8.390;2023-06-04T13:09:19;4.20;;;3.80;;
1879;SDS011;49285;49.002;8.390;2023-06-04T13:11:45;5.60;;;5.00;;
1879;SDS011;49285;49.002;8.390;2023-06-04T13:14:11;5.17;;;4.30;;
1879;SDS011;49285;49.002;8.390;2023-06-04T13:16:39;4.93;;;4.43;;
1879;SDS011;49285;49.002;8.390;2023-06-04T13:19:05;6.30;;;4.40;;
1879;SDS011;49285;49.002;8.390;2023-06-04T13:21:32;6.80;;;4.90;;
1879;SDS011;49285;49.002;8.390;2023-06-04T13:23:57;5.30;;;4.80;;
1879;SDS011;49285;49.002;8.390;2023-06-04T13:26:23;4.63;;;4.17;;
1879;SDS011;49285;49.002;8.390;2023-06-04T13:28:49;8.23;;;5.13;;
1879;SDS011;49285;49.002;8.390;2023-06-04T13:31:14;5.03;;;4.30;;
1879;SDS011;49285;49.002;8.390;2023-06-04T13:33:40;6.67;;;4.53;;
1879;SDS011;49285;49.002;8.390;2023-06-04T13:36:06;5.00;;;4.53;;
1879;SDS011;49285;49.002;8.390;2023-06-04T13:38:32;5.17;;;4.67;;
1879;SDS011;49285;49.002;8.390;2023-06-04T13:40:58;5.70;;;4.30;;
1879;SDS011;49285;49.002;8.390;2023-06-04T13:43:23;6.20;;;4.50;;
1879;SDS011;49285;49.002;8.390;2023-06-04T13:45:49;4.93;;;4.43;;
1879;SDS011;49285;49.002;8.390;2023-06-04T13:48:15;5.30;;;4.20;;
1879;SDS011;49285;49.002;8.390;2023-06-04T13:50:41;5.20;;;4.33;;
1879;SDS011;49285;49.002;8.390;2023-06-04T13:53:08;4.70;;;4.30;;
1879;SDS011;49285;49.002;8.390;2023-06-04T13:55:33;5.10;;;4.50;;
1879;SDS011;49285;49.002;8.390;2023-06-04T13:57:59;6.67;;;6.07;;
1879;SDS011;49285;49.002;8.390;2023-06-04T14:00:25;4.90;;;4.47;;
1879;SDS011;49285;49.002;8.390;2023-06-04T14:02:50;4.80;;;4.30;;
1879;SDS011;49285;49.002;8.390;2023-06-04T14:05:17;5.60;;;4.70;;
1879;SDS011;49285;49.002;8.390;2023-06-04T14:07:43;4.60;;;4.20;;
1879;SDS011;49285;49.002;8.390;2023-06-04T14:10:09;5.70;;;5.20;;
1879;SDS011;49285;49.002;8.390;2023-06-04T14:12:36;6.10;;;4.90;;
1879;SDS011;49285;49.002;8.390;2023-06-04T14:15:03;7.20;;;4.97;;
1879;SDS011;49285;49.002;8.390;2023-06-04T14:17:29;5.07;;;4.57;;
1879;SDS011;49285;49.002;8.390;2023-06-04T14:19:55;7.03;;;6.33;;
1879;SDS011;49285;49.002;8.390;2023-06-04T14:22:20;5.30;;;4.80;;
1879;SDS011;49285;49.002;8.390;2023-06-04T14:24:46;6.93;;;5.50;;
1879;SDS011;49285;49.002;8.390;2023-06-04T14:27:11;7.30;;;5.00;;
1879;SDS011;49285;49.002;8.390;2023-06-04T14:29:38;4.93;;;4.40;;
1879;SDS011;49285;49.002;8.390;2023-06-04T14:32:04;5.23;;;4.73;;
1879;SDS011;49285;49.002;8.390;2023-06-04T14:34:30;4.97;;;4.57;;
1879;SDS011;49285;49.002;8.390;2023-06-04T14:36:57;5.00;;;4.60;;
1879;SDS011;49285;49.002;8.390;2023-06-04T14:39:24;5.07;;;4.57;;
1879;SDS011;49285;49.002;8.390;2023-06-04T14:41:51;4.93;;;4.47;;
1879;SDS011;49285;49.002;8.390;2023-06-04T14:44:17;6.30;;;4.00;;
1879;SDS011;49285;49.002;8.390;2023-06-04T14:46:43;6.87;;;4.80;;
1879;SDS011;49285;49.002;8.390;2023-06-04T14:49:08;5.07;;;4.67;;
1879;SDS011;49285;49.002;8.390;2023-06-04T14:51:34;4.40;;;4.00;;
1879;SDS011;49285;49.002;8.390;2023-06-04T14:53:59;4.60;;;4.10;;
1879;SDS011;49285;49.002;8.390;2023-06-04T14:56:25;5.23;;;4.83;;
1879;SDS011;49285;49.002;8.390;2023-06-04T14:58:51;5.93;;;4.80;;
1879;SDS011;49285;49.002;8.390;2023-06-04T15:01:17;4.83;;;4.40;;
1879;SDS011;49285;49.002;8.390;2023-06-04T15:03:42;5.43;;;4.93;;
1879;SDS011;49285;49.002;8.390;2023-06-04T15:06:08;5.60;;;4.87;;